createdAt,value
2018-04-10T00:00:21.115Z,14.3
2018-04-10T00:01:22.471Z,14.2
2018-04-10T00:02:23.813Z,14.1
2018-04-10T00:03:25.175Z,14.1
2018-04-10T00:04:26.527Z,14.0
2018-04-10T00:05:27.883Z,14.1
2018-04-10T00:06:29.240Z,14.1
2018-04-10T00:07:30.598Z,14.1
2018-04-10T00:08:31.945Z,14.0
2018-04-10T00:09:33.312Z,13.9
2018-04-10T00:10:34.671Z,14.0
2018-04-10T00:11:36.203Z,13.8
2018-04-10T00:12:37.568Z,13.8
2018-04-10T00:13:38.916Z,13.8
2018-04-10T00:14:40.278Z,13.8
2018-04-10T00:15:41.637Z,13.8
2018-04-10T00:16:42.988Z,13.8
2018-04-10T00:17:44.334Z,13.8
2018-04-10T00:18:45.698Z,13.7
2018-04-10T00:19:47.046Z,13.7
2018-04-10T00:20:48.417Z,13.7
2018-04-10T00:21:49.759Z,13.6
2018-04-10T00:22:51.120Z,13.6
2018-04-10T00:23:52.481Z,13.6
2018-04-10T00:24:53.823Z,13.7
2018-04-10T00:25:55.181Z,13.6
2018-04-10T00:26:56.542Z,13.5
2018-04-10T00:27:57.903Z,13.6
2018-04-10T00:28:59.267Z,13.5
2018-04-10T00:30:00.628Z,13.4
2018-04-10T00:31:01.987Z,13.5
2018-04-10T00:32:03.341Z,13.5
2018-04-10T00:33:04.691Z,13.4
2018-04-10T00:34:06.048Z,13.5
2018-04-10T00:35:07.400Z,13.4
2018-04-10T00:36:08.755Z,13.5
2018-04-10T00:37:10.117Z,13.3
2018-04-10T00:38:11.470Z,13.4
2018-04-10T00:39:12.831Z,13.4
2018-04-10T00:40:14.186Z,13.4
2018-04-10T00:41:15.537Z,13.3
2018-04-10T00:42:16.893Z,13.3
2018-04-10T00:43:18.250Z,13.3
2018-04-10T00:44:19.601Z,13.2
2018-04-10T00:45:20.961Z,13.2
2018-04-10T00:46:22.316Z,13.2
2018-04-10T00:47:23.671Z,13.2
2018-04-10T00:48:25.015Z,13.1
2018-04-10T00:49:26.378Z,13.1
2018-04-10T00:50:27.780Z,13.1
2018-04-10T00:51:29.136Z,13.1
2018-04-10T00:52:30.488Z,13.1
2018-04-10T00:53:31.838Z,13.1
2018-04-10T00:54:33.193Z,13.0
2018-04-10T00:55:34.538Z,13.0
2018-04-10T00:56:35.906Z,13.1
2018-04-10T00:57:37.267Z,13.1
2018-04-10T00:58:38.616Z,13.0
2018-04-10T00:59:39.968Z,12.9
2018-04-10T01:00:41.332Z,13.0
2018-04-10T01:01:42.678Z,12.9
2018-04-10T01:02:44.025Z,12.9
2018-04-10T01:03:45.502Z,12.8
2018-04-10T01:04:46.859Z,12.9
2018-04-10T01:05:48.214Z,12.8
2018-04-10T01:06:49.574Z,12.8
2018-04-10T01:07:50.925Z,12.8
2018-04-10T01:08:52.281Z,12.8
2018-04-10T01:09:53.639Z,12.8
2018-04-10T01:10:54.992Z,12.8
2018-04-10T01:11:56.353Z,12.7
2018-04-10T01:12:57.709Z,12.7
2018-04-10T01:13:59.067Z,12.7
2018-04-10T01:15:00.430Z,12.7
2018-04-10T01:16:01.783Z,12.7
2018-04-10T01:17:03.140Z,12.8
2018-04-10T01:18:04.495Z,12.6
2018-04-10T01:19:05.847Z,12.7
2018-04-10T01:20:07.203Z,12.7
2018-04-10T01:21:08.557Z,12.7
2018-04-10T01:22:09.912Z,12.6
2018-04-10T01:23:11.260Z,12.6
2018-04-10T01:24:12.617Z,12.6
2018-04-10T01:25:13.969Z,12.6
2018-04-10T01:26:15.326Z,12.5
2018-04-10T01:27:16.682Z,12.5
2018-04-10T01:28:18.036Z,12.5
2018-04-10T01:29:19.393Z,12.5
2018-04-10T01:30:20.745Z,12.5
2018-04-10T01:31:22.097Z,12.5
2018-04-10T01:32:23.464Z,12.4
2018-04-10T01:33:24.817Z,12.5
2018-04-10T01:34:26.198Z,12.5
2018-04-10T01:35:27.560Z,12.4
2018-04-10T01:36:28.918Z,12.4
2018-04-10T01:37:30.271Z,12.4
2018-04-10T01:38:31.631Z,12.4
2018-04-10T01:39:32.984Z,12.4
2018-04-10T01:40:34.347Z,12.4
2018-04-10T01:41:35.886Z,12.3
2018-04-10T01:42:37.203Z,12.3
2018-04-10T01:43:38.561Z,12.3
2018-04-10T01:44:39.920Z,12.3
2018-04-10T01:45:41.283Z,12.3
2018-04-10T01:46:42.632Z,12.3
2018-04-10T01:47:43.993Z,12.3
2018-04-10T01:48:45.347Z,12.3
2018-04-10T01:49:46.702Z,12.3
2018-04-10T01:50:48.062Z,12.3
2018-04-10T01:51:49.417Z,12.3
2018-04-10T01:52:50.768Z,12.3
2018-04-10T01:53:52.124Z,12.2
2018-04-10T01:54:53.483Z,12.2
2018-04-10T01:55:54.838Z,12.3
2018-04-10T01:56:56.193Z,12.2
2018-04-10T01:57:57.548Z,12.2
2018-04-10T01:58:58.896Z,12.3
2018-04-10T02:00:00.241Z,12.2
2018-04-10T02:01:01.606Z,12.3
2018-04-10T02:02:02.961Z,12.3
2018-04-10T02:03:04.308Z,12.3
2018-04-10T02:04:05.664Z,12.2
2018-04-10T02:05:07.031Z,12.3
2018-04-10T02:06:08.403Z,12.2
2018-04-10T02:07:09.761Z,12.2
2018-04-10T02:08:11.107Z,12.3
2018-04-10T02:09:12.464Z,12.3
2018-04-10T02:10:14.551Z,12.2
2018-04-10T02:11:15.898Z,12.2
2018-04-10T02:12:17.253Z,12.2
2018-04-10T02:13:18.611Z,12.2
2018-04-10T02:14:19.964Z,12.2
2018-04-10T02:15:21.314Z,12.1
2018-04-10T02:16:22.671Z,12.1
2018-04-10T02:17:24.517Z,12.2
2018-04-10T02:18:25.869Z,12.2
2018-04-10T02:19:27.216Z,12.2
2018-04-10T02:20:28.571Z,12.1
2018-04-10T02:21:29.937Z,12.1
2018-04-10T02:22:31.298Z,12.2
2018-04-10T02:23:32.650Z,12.1
2018-04-10T02:24:34.002Z,12.1
2018-04-10T02:25:35.352Z,12.1
2018-04-10T02:26:36.695Z,12.1
2018-04-10T02:27:38.058Z,12.1
2018-04-10T02:28:39.410Z,12.1
2018-04-10T02:29:40.768Z,12.1
2018-04-10T02:30:42.123Z,12.1
2018-04-10T02:31:43.483Z,12.1
2018-04-10T02:32:45.261Z,12.0
2018-04-10T02:33:46.572Z,12.0
2018-04-10T02:34:47.921Z,12.1
2018-04-10T02:35:49.280Z,12.0
2018-04-10T02:36:50.630Z,12.1
2018-04-10T02:37:51.988Z,12.1
2018-04-10T02:38:53.337Z,12.1
2018-04-10T02:39:54.692Z,12.1
2018-04-10T02:40:56.044Z,12.1
2018-04-10T02:41:57.398Z,12.1
2018-04-10T02:42:58.755Z,12.1
2018-04-10T02:44:00.108Z,12.1
2018-04-10T02:45:01.457Z,12.2
2018-04-10T02:46:02.820Z,12.2
2018-04-10T02:47:04.177Z,12.2
2018-04-10T02:48:05.531Z,12.2
2018-04-10T02:49:06.884Z,12.1
2018-04-10T02:50:08.243Z,12.2
2018-04-10T02:51:09.617Z,12.2
2018-04-10T02:52:10.960Z,12.2
2018-04-10T02:53:12.316Z,12.2
2018-04-10T02:54:13.676Z,12.3
2018-04-10T02:55:15.024Z,12.2
2018-04-10T02:56:16.381Z,12.2
2018-04-10T02:57:17.745Z,12.2
2018-04-10T02:58:19.095Z,12.2
2018-04-10T02:59:20.448Z,12.3
2018-04-10T03:00:21.810Z,12.2
2018-04-10T03:01:23.156Z,12.2
2018-04-10T03:02:24.515Z,12.2
2018-04-10T03:03:25.864Z,12.2
2018-04-10T03:04:27.223Z,12.2
2018-04-10T03:05:28.580Z,12.3
2018-04-10T03:06:29.936Z,12.3
2018-04-10T03:07:31.296Z,12.2
2018-04-10T03:08:32.658Z,12.3
2018-04-10T03:09:34.005Z,12.2
2018-04-10T03:10:35.357Z,12.3
2018-04-10T03:11:36.743Z,12.3
2018-04-10T03:12:38.100Z,12.3
2018-04-10T03:13:39.447Z,12.3
2018-04-10T03:14:40.804Z,12.3
2018-04-10T03:15:42.159Z,12.3
2018-04-10T03:16:43.516Z,12.2
2018-04-10T03:17:44.863Z,12.4
2018-04-10T03:18:46.231Z,12.3
2018-04-10T03:19:47.592Z,12.4
2018-04-10T03:20:48.973Z,12.3
2018-04-10T03:21:50.300Z,12.3
2018-04-10T03:22:51.660Z,12.3
2018-04-10T03:23:53.013Z,12.3
2018-04-10T03:24:54.370Z,12.3
2018-04-10T03:25:55.721Z,12.3
2018-04-10T03:26:57.077Z,12.4
2018-04-10T03:27:58.433Z,12.4
2018-04-10T03:28:59.795Z,12.3
2018-04-10T03:30:01.144Z,12.2
2018-04-10T03:31:02.494Z,12.3
2018-04-10T03:32:03.842Z,12.3
2018-04-10T03:33:05.198Z,12.3
2018-04-10T03:34:06.559Z,12.3
2018-04-10T03:35:07.909Z,12.3
2018-04-10T03:36:09.277Z,12.3
2018-04-10T03:37:10.635Z,12.4
2018-04-10T03:38:11.983Z,12.3
2018-04-10T03:39:13.340Z,12.3
2018-04-10T03:40:14.695Z,12.3
2018-04-10T03:41:16.052Z,12.3
2018-04-10T03:42:17.414Z,12.4
2018-04-10T03:43:18.753Z,12.3
2018-04-10T03:44:20.105Z,12.4
2018-04-10T03:45:21.461Z,12.4
2018-04-10T03:46:22.814Z,12.4
2018-04-10T03:47:24.174Z,12.4
2018-04-10T03:48:25.535Z,12.3
2018-04-10T03:49:26.892Z,12.3
2018-04-10T03:50:28.248Z,12.4
2018-04-10T03:51:29.604Z,12.4
2018-04-10T03:52:30.957Z,12.4
2018-04-10T03:53:32.311Z,12.4
2018-04-10T03:54:33.659Z,12.4
2018-04-10T03:55:35.014Z,12.5
2018-04-10T03:56:36.377Z,12.4
2018-04-10T03:57:37.727Z,12.4
2018-04-10T03:58:39.084Z,12.4
2018-04-10T03:59:40.449Z,12.4
2018-04-10T04:00:41.805Z,12.4
2018-04-10T04:01:43.151Z,12.4
2018-04-10T04:02:44.509Z,12.4
2018-04-10T04:03:45.866Z,12.4
2018-04-10T04:04:47.220Z,12.4
2018-04-10T04:05:48.572Z,12.4
2018-04-10T04:06:49.937Z,12.4
2018-04-10T04:07:51.280Z,12.4
2018-04-10T04:08:52.642Z,12.4
2018-04-10T04:09:53.992Z,12.4
2018-04-10T04:10:55.353Z,12.4
2018-04-10T04:11:56.706Z,12.4
2018-04-10T04:12:58.057Z,12.4
2018-04-10T04:13:59.414Z,12.3
2018-04-10T04:15:00.765Z,12.4
2018-04-10T04:16:02.151Z,12.4
2018-04-10T04:17:03.642Z,12.4
2018-04-10T04:18:05.001Z,12.4
2018-04-10T04:19:06.364Z,12.4
2018-04-10T04:20:07.709Z,12.5
2018-04-10T04:21:09.062Z,12.4
2018-04-10T04:22:10.419Z,12.4
2018-04-10T04:23:11.776Z,12.4
2018-04-10T04:24:13.136Z,12.4
2018-04-10T04:25:14.494Z,12.5
2018-04-10T04:26:15.857Z,12.5
2018-04-10T04:27:17.209Z,12.5
2018-04-10T04:28:18.573Z,12.4
2018-04-10T04:29:19.928Z,12.4
2018-04-10T04:30:21.295Z,12.4
2018-04-10T04:31:22.647Z,12.5
2018-04-10T04:32:24.004Z,12.5
2018-04-10T04:33:25.372Z,12.5
2018-04-10T04:34:26.724Z,12.5
2018-04-10T04:35:28.078Z,12.4
2018-04-10T04:36:29.433Z,12.4
2018-04-10T04:37:30.788Z,12.4
2018-04-10T04:38:32.144Z,12.5
2018-04-10T04:39:33.500Z,12.4
2018-04-10T04:40:34.856Z,12.5
2018-04-10T04:41:36.335Z,12.5
2018-04-10T04:42:37.687Z,12.4
2018-04-10T04:43:39.064Z,12.4
2018-04-10T04:44:40.411Z,12.5
2018-04-10T04:45:41.771Z,12.5
2018-04-10T04:46:43.135Z,12.5
2018-04-10T04:47:44.484Z,12.5
2018-04-10T04:48:45.848Z,12.4
2018-04-10T04:49:47.209Z,12.5
2018-04-10T04:50:48.568Z,12.5
2018-04-10T04:51:49.963Z,12.5
2018-04-10T04:52:51.323Z,12.5
2018-04-10T04:53:52.687Z,12.5
2018-04-10T04:54:54.054Z,12.5
2018-04-10T04:55:55.413Z,12.5
2018-04-10T04:56:56.773Z,12.5
2018-04-10T04:57:58.144Z,12.5
2018-04-10T04:58:59.504Z,12.5
2018-04-10T05:00:00.862Z,12.5
2018-04-10T05:01:02.224Z,12.5
2018-04-10T05:02:04.545Z,12.5
2018-04-10T05:03:05.908Z,12.5
2018-04-10T05:04:07.266Z,12.5
2018-04-10T05:05:08.628Z,12.5
2018-04-10T05:06:09.980Z,12.5
2018-04-10T05:07:11.338Z,12.6
2018-04-10T05:08:12.697Z,12.6
2018-04-10T05:09:14.074Z,12.6
2018-04-10T05:10:15.431Z,12.6
2018-04-10T05:11:16.784Z,12.6
2018-04-10T05:12:18.147Z,12.7
2018-04-10T05:13:19.510Z,12.7
2018-04-10T05:14:20.860Z,12.7
2018-04-10T05:15:22.247Z,12.7
2018-04-10T05:16:23.580Z,12.7
2018-04-10T05:17:24.944Z,12.6
2018-04-10T05:18:26.319Z,12.6
2018-04-10T05:19:27.679Z,12.6
2018-04-10T05:20:29.033Z,12.7
2018-04-10T05:21:30.399Z,12.6
2018-04-10T05:22:31.753Z,12.6
2018-04-10T05:23:33.108Z,12.6
2018-04-10T05:24:34.475Z,12.6
2018-04-10T05:25:35.836Z,12.8
2018-04-10T05:26:37.202Z,12.7
2018-04-10T05:27:38.564Z,12.7
2018-04-10T05:28:39.926Z,12.7
2018-04-10T05:29:41.281Z,12.7
2018-04-10T05:30:42.654Z,12.6
2018-04-10T05:31:44.014Z,12.8
2018-04-10T05:32:45.373Z,12.8
2018-04-10T05:33:46.727Z,12.7
2018-04-10T05:34:48.085Z,12.7
2018-04-10T05:35:49.450Z,12.8
2018-04-10T05:36:50.808Z,12.8
2018-04-10T05:37:52.168Z,12.8
2018-04-10T05:38:53.529Z,12.7
2018-04-10T05:39:54.882Z,12.8
2018-04-10T05:40:56.246Z,12.8
2018-04-10T05:41:57.615Z,12.8
2018-04-10T05:42:58.966Z,12.8
2018-04-10T05:44:00.321Z,12.8
2018-04-10T05:45:01.679Z,12.8
2018-04-10T05:46:03.029Z,12.8
2018-04-10T05:47:04.443Z,12.8
2018-04-10T05:48:05.747Z,12.9
2018-04-10T05:49:07.109Z,12.9
2018-04-10T05:50:08.477Z,12.9
2018-04-10T05:51:09.828Z,12.9
2018-04-10T05:52:11.189Z,12.9
2018-04-10T05:53:12.544Z,13.0
2018-04-10T05:54:13.905Z,12.9
2018-04-10T05:55:15.265Z,13.0
2018-04-10T05:56:16.629Z,13.0
2018-04-10T05:57:17.994Z,13.0
2018-04-10T05:58:19.369Z,13.0
2018-04-10T05:59:20.728Z,13.0
2018-04-10T06:00:22.083Z,13.0
2018-04-10T06:01:23.443Z,13.0
2018-04-10T06:02:24.810Z,13.0
2018-04-10T06:03:26.164Z,13.1
2018-04-10T06:04:27.534Z,13.1
2018-04-10T06:05:28.894Z,13.1
2018-04-10T06:06:30.260Z,13.1
2018-04-10T06:07:31.625Z,13.2
2018-04-10T06:08:32.983Z,13.1
2018-04-10T06:09:34.349Z,13.2
2018-04-10T06:10:35.730Z,13.2
2018-04-10T06:11:37.100Z,13.2
2018-04-10T06:12:38.458Z,13.2
2018-04-10T06:13:39.825Z,13.2
2018-04-10T06:14:41.181Z,13.2
2018-04-10T06:15:42.542Z,13.3
2018-04-10T06:16:43.904Z,13.3
2018-04-10T06:17:45.267Z,13.4
2018-04-10T06:18:46.625Z,13.3
2018-04-10T06:19:47.987Z,13.4
2018-04-10T06:20:49.359Z,13.5
2018-04-10T06:21:50.719Z,13.5
2018-04-10T06:22:52.079Z,13.6
2018-04-10T06:23:53.442Z,13.6
2018-04-10T06:24:54.812Z,13.5
2018-04-10T06:25:56.188Z,13.6
2018-04-10T06:26:57.606Z,13.6
2018-04-10T06:27:58.982Z,13.5
2018-04-10T06:29:00.343Z,13.5
2018-04-10T06:30:01.703Z,13.5
2018-04-10T06:31:03.066Z,13.5
2018-04-10T06:32:04.436Z,13.6
2018-04-10T06:33:05.812Z,13.6
2018-04-10T06:34:07.183Z,13.5
2018-04-10T06:35:08.561Z,13.6
2018-04-10T06:36:09.918Z,13.6
2018-04-10T06:37:11.278Z,13.6
2018-04-10T06:38:12.647Z,13.7
2018-04-10T06:39:14.008Z,13.8
2018-04-10T06:40:15.374Z,13.8
2018-04-10T06:41:16.752Z,13.8
2018-04-10T06:42:18.104Z,13.8
2018-04-10T06:43:19.469Z,13.9
2018-04-10T06:44:20.833Z,14.0
2018-04-10T06:45:22.200Z,14.2
2018-04-10T06:46:23.561Z,14.1
2018-04-10T06:47:24.917Z,14.1
2018-04-10T06:48:26.291Z,14.0
2018-04-10T06:49:27.652Z,14.2
2018-04-10T06:50:29.021Z,14.3
2018-04-10T06:51:30.380Z,14.3
2018-04-10T06:52:31.748Z,14.2
2018-04-10T06:53:33.113Z,14.4
2018-04-10T06:54:34.479Z,14.5
2018-04-10T06:55:35.841Z,14.6
2018-04-10T06:56:37.208Z,14.7
2018-04-10T06:57:38.565Z,14.7
2018-04-10T06:58:39.927Z,14.8
2018-04-10T06:59:41.291Z,14.8
2018-04-10T07:00:42.651Z,14.8
2018-04-10T07:01:44.039Z,14.8
2018-04-10T07:02:45.397Z,14.8
2018-04-10T07:03:46.762Z,14.8
2018-04-10T07:04:48.127Z,14.8
2018-04-10T07:05:49.497Z,14.8
2018-04-10T07:06:50.858Z,14.8
2018-04-10T07:07:52.224Z,14.8
2018-04-10T07:08:54.301Z,14.8
2018-04-10T07:09:55.675Z,14.8
2018-04-10T07:10:57.038Z,14.9
2018-04-10T07:11:58.405Z,14.9
2018-04-10T07:12:59.772Z,14.9
2018-04-10T07:14:01.134Z,15.0
2018-04-10T07:15:02.509Z,15.0
2018-04-10T07:16:03.871Z,15.0
2018-04-10T07:17:05.243Z,15.0
2018-04-10T07:18:06.611Z,14.9
2018-04-10T07:19:07.983Z,14.9
2018-04-10T07:20:09.345Z,14.9
2018-04-10T07:21:10.712Z,14.8
2018-04-10T07:22:12.081Z,14.8
2018-04-10T07:23:13.460Z,14.9
2018-04-10T07:24:14.832Z,14.8
2018-04-10T07:25:16.200Z,14.9
2018-04-10T07:26:17.564Z,14.8
2018-04-10T07:27:18.932Z,14.8
2018-04-10T07:28:20.311Z,15.0
2018-04-10T07:29:21.690Z,15.0
2018-04-10T07:30:23.065Z,15.2
2018-04-10T07:31:24.433Z,15.3
2018-04-10T07:32:25.808Z,15.4
2018-04-10T07:33:27.199Z,15.4
2018-04-10T07:34:28.568Z,15.6
2018-04-10T07:35:29.939Z,15.7
2018-04-10T07:36:31.310Z,15.8
2018-04-10T07:37:32.674Z,15.8
2018-04-10T07:38:34.048Z,15.9
2018-04-10T07:39:35.454Z,15.8
2018-04-10T07:40:36.794Z,16.0
2018-04-10T07:41:38.166Z,16.0
2018-04-10T07:42:39.528Z,16.0
2018-04-10T07:43:40.915Z,16.0
2018-04-10T07:44:42.285Z,16.1
2018-04-10T07:45:43.648Z,16.2
2018-04-10T07:46:45.041Z,16.2
2018-04-10T07:47:46.405Z,16.2
2018-04-10T07:48:47.776Z,16.2
2018-04-10T07:49:49.146Z,16.4
2018-04-10T07:50:50.520Z,16.4
2018-04-10T07:51:51.890Z,16.4
2018-04-10T07:52:53.264Z,16.5
2018-04-10T07:53:54.663Z,16.5
2018-04-10T07:54:56.035Z,16.4
2018-04-10T07:55:57.406Z,16.5
2018-04-10T07:56:58.775Z,16.4
2018-04-10T07:58:00.151Z,16.5
2018-04-10T07:59:01.528Z,16.5
2018-04-10T08:00:02.893Z,16.5
2018-04-10T08:01:04.356Z,16.5
2018-04-10T08:02:05.724Z,16.5
2018-04-10T08:03:07.096Z,16.5
2018-04-10T08:04:08.469Z,16.5
2018-04-10T08:05:09.843Z,16.5
2018-04-10T08:06:11.225Z,16.6
2018-04-10T08:07:12.600Z,16.7
2018-04-10T08:08:13.974Z,16.7
2018-04-10T08:09:15.351Z,16.7
2018-04-10T08:10:16.717Z,16.8
2018-04-10T08:11:18.095Z,16.8
2018-04-10T08:12:19.473Z,17.0
2018-04-10T08:13:20.841Z,17.0
2018-04-10T08:14:22.225Z,17.1
2018-04-10T08:15:23.624Z,17.1
2018-04-10T08:16:25.002Z,17.0
2018-04-10T08:17:26.378Z,17.0
2018-04-10T08:18:27.746Z,17.1
2018-04-10T08:19:29.121Z,17.2
2018-04-10T08:20:30.497Z,17.2
2018-04-10T08:21:31.898Z,17.2
2018-04-10T08:22:33.282Z,17.3
2018-04-10T08:23:34.658Z,17.5
2018-04-10T08:24:36.032Z,17.6
2018-04-10T08:25:37.398Z,17.7
2018-04-10T08:26:38.775Z,17.8
2018-04-10T08:27:40.140Z,17.9
2018-04-10T08:28:41.515Z,17.9
2018-04-10T08:29:42.892Z,17.8
2018-04-10T08:30:44.265Z,17.9
2018-04-10T08:31:45.649Z,18.0
2018-04-10T08:32:47.023Z,18.1
2018-04-10T08:33:48.414Z,18.2
2018-04-10T08:34:49.792Z,18.3
2018-04-10T08:35:51.176Z,18.2
2018-04-10T08:36:52.554Z,18.1
2018-04-10T08:37:53.962Z,18.1
2018-04-10T08:38:55.317Z,18.0
2018-04-10T08:39:56.701Z,17.9
2018-04-10T08:40:58.079Z,17.7
2018-04-10T08:41:59.454Z,17.8
2018-04-10T08:43:00.836Z,17.7
2018-04-10T08:44:02.220Z,17.5
2018-04-10T08:45:03.611Z,17.6
2018-04-10T08:46:04.963Z,17.6
2018-04-10T08:47:06.347Z,17.7
2018-04-10T08:48:07.721Z,17.8
2018-04-10T08:49:09.105Z,17.9
2018-04-10T08:50:10.490Z,17.9
2018-04-10T08:51:11.886Z,17.8
2018-04-10T08:52:13.259Z,17.8
2018-04-10T08:53:14.632Z,17.9
2018-04-10T08:54:16.000Z,17.9
2018-04-10T08:55:17.388Z,17.8
2018-04-10T08:56:18.761Z,17.7
2018-04-10T08:57:20.147Z,17.8
2018-04-10T08:58:21.517Z,17.7
2018-04-10T08:59:22.892Z,17.7
2018-04-10T09:00:24.301Z,17.7
2018-04-10T09:01:25.645Z,17.6
2018-04-10T09:02:27.020Z,17.5
2018-04-10T09:03:28.390Z,17.6
2018-04-10T09:04:29.768Z,17.6
2018-04-10T09:05:31.153Z,17.8
2018-04-10T09:06:32.525Z,17.8
2018-04-10T09:07:33.920Z,18.0
2018-04-10T09:08:35.297Z,18.0
2018-04-10T09:09:36.679Z,18.1
2018-04-10T09:10:38.055Z,18.2
2018-04-10T09:11:39.423Z,18.2
2018-04-10T09:12:40.816Z,18.3
2018-04-10T09:13:42.195Z,18.1
2018-04-10T09:14:43.568Z,18.1
2018-04-10T09:15:44.941Z,18.1
2018-04-10T09:16:46.315Z,18.1
2018-04-10T09:17:47.685Z,18.3
2018-04-10T09:18:49.064Z,18.2
2018-04-10T09:19:50.445Z,18.3
2018-04-10T09:20:51.818Z,18.4
2018-04-10T09:21:53.263Z,18.3
2018-04-10T09:22:54.543Z,18.4
2018-04-10T09:23:55.908Z,18.4
2018-04-10T09:24:57.295Z,18.5
2018-04-10T09:25:58.661Z,18.5
2018-04-10T09:27:00.044Z,18.5
2018-04-10T09:28:01.415Z,18.5
2018-04-10T09:29:02.819Z,18.4
2018-04-10T09:30:04.166Z,18.4
2018-04-10T09:31:05.592Z,18.5
2018-04-10T09:32:06.919Z,18.6
2018-04-10T09:33:08.299Z,18.6
2018-04-10T09:34:09.679Z,18.6
2018-04-10T09:35:11.051Z,18.6
2018-04-10T09:36:12.424Z,18.7
2018-04-10T09:37:13.804Z,18.7
2018-04-10T09:38:15.183Z,18.7
2018-04-10T09:39:16.553Z,18.7
2018-04-10T09:40:17.924Z,18.7
2018-04-10T09:41:19.299Z,18.7
2018-04-10T09:42:20.678Z,18.7
2018-04-10T09:43:22.053Z,18.7
2018-04-10T09:44:23.422Z,18.6
2018-04-10T09:45:24.796Z,18.6
2018-04-10T09:46:26.177Z,18.6
2018-04-10T09:47:27.559Z,18.6
2018-04-10T09:48:28.932Z,18.6
2018-04-10T09:49:30.935Z,18.5
2018-04-10T09:50:32.306Z,18.6
2018-04-10T09:51:33.681Z,18.7
2018-04-10T09:52:35.059Z,18.6
2018-04-10T09:53:36.430Z,18.6
2018-04-10T09:54:37.807Z,18.7
2018-04-10T09:55:39.191Z,18.5
2018-04-10T09:56:40.569Z,18.5
2018-04-10T09:57:41.942Z,18.4
2018-04-10T09:58:43.320Z,18.5
2018-04-10T09:59:44.705Z,18.6
2018-04-10T10:00:46.081Z,18.7
2018-04-10T10:01:47.463Z,18.8
2018-04-10T10:02:48.834Z,18.9
2018-04-10T10:03:50.211Z,18.9
2018-04-10T10:04:51.589Z,18.8
2018-04-10T10:05:52.961Z,18.8
2018-04-10T10:06:54.337Z,18.9
2018-04-10T10:07:55.721Z,18.9
2018-04-10T10:08:57.091Z,18.9
2018-04-10T10:09:58.470Z,18.9
2018-04-10T10:10:59.850Z,18.9
2018-04-10T10:12:01.231Z,18.9
2018-04-10T10:13:02.634Z,18.9
2018-04-10T10:14:04.013Z,19.0
2018-04-10T10:15:05.382Z,19.0
2018-04-10T10:16:06.758Z,18.9
2018-04-10T10:17:08.129Z,18.9
2018-04-10T10:18:09.509Z,18.7
2018-04-10T10:19:10.887Z,18.8
2018-04-10T10:20:12.283Z,18.9
2018-04-10T10:21:13.657Z,19.0
2018-04-10T10:22:15.033Z,19.0
2018-04-10T10:23:16.420Z,19.0
2018-04-10T10:24:17.801Z,19.1
2018-04-10T10:25:19.173Z,19.1
2018-04-10T10:26:20.547Z,19.1
2018-04-10T10:27:21.923Z,19.1
2018-04-10T10:28:23.303Z,19.1
2018-04-10T10:29:24.680Z,19.2
2018-04-10T10:30:26.070Z,19.2
2018-04-10T10:31:27.447Z,19.2
2018-04-10T10:32:28.817Z,19.1
2018-04-10T10:33:30.190Z,19.0
2018-04-10T10:34:31.572Z,19.1
2018-04-10T10:35:32.947Z,19.2
2018-04-10T10:36:34.331Z,19.1
2018-04-10T10:37:35.707Z,19.2
2018-04-10T10:38:37.087Z,19.2
2018-04-10T10:39:38.465Z,19.2
2018-04-10T10:40:39.840Z,19.2
2018-04-10T10:41:41.219Z,19.2
2018-04-10T10:42:42.606Z,19.2
2018-04-10T10:43:43.983Z,19.2
2018-04-10T10:44:45.360Z,19.2
2018-04-10T10:45:46.743Z,19.3
2018-04-10T10:46:48.111Z,19.2
2018-04-10T10:47:49.491Z,19.2
2018-04-10T10:48:50.869Z,19.3
2018-04-10T10:49:52.252Z,19.4
2018-04-10T10:50:53.656Z,19.4
2018-04-10T10:51:55.093Z,19.4
2018-04-10T10:52:56.468Z,19.6
2018-04-10T10:53:57.843Z,19.6
2018-04-10T10:54:59.220Z,19.7
2018-04-10T10:56:00.608Z,19.7
2018-04-10T10:57:01.988Z,19.7
2018-04-10T10:58:03.398Z,19.7
2018-04-10T10:59:04.783Z,19.8
2018-04-10T11:00:06.176Z,19.8
2018-04-10T11:01:07.551Z,19.9
2018-04-10T11:02:08.931Z,19.9
2018-04-10T11:03:10.303Z,19.8
2018-04-10T11:04:11.676Z,19.9
2018-04-10T11:05:13.061Z,19.9
2018-04-10T11:06:14.435Z,20.1
2018-04-10T11:07:15.845Z,20.2
2018-04-10T11:08:17.223Z,20.3
2018-04-10T11:09:18.597Z,20.3
2018-04-10T11:10:19.974Z,20.3
2018-04-10T11:11:21.353Z,20.2
2018-04-10T11:12:22.729Z,20.2
2018-04-10T11:13:24.140Z,20.3
2018-04-10T11:14:25.517Z,20.3
2018-04-10T11:15:26.911Z,20.3
2018-04-10T11:16:28.290Z,20.3
2018-04-10T11:17:29.676Z,20.4
2018-04-10T11:18:31.056Z,20.3
2018-04-10T11:19:32.436Z,20.5
2018-04-10T11:20:33.856Z,20.5
2018-04-10T11:21:35.226Z,20.5
2018-04-10T11:22:36.600Z,20.4
2018-04-10T11:23:37.978Z,20.4
2018-04-10T11:24:39.357Z,20.4
2018-04-10T11:25:40.736Z,20.3
2018-04-10T11:26:42.119Z,20.3
2018-04-10T11:27:43.503Z,20.3
2018-04-10T11:28:44.891Z,20.3
2018-04-10T11:29:46.287Z,20.3
2018-04-10T11:30:47.660Z,20.3
2018-04-10T11:31:49.046Z,20.3
2018-04-10T11:32:50.427Z,20.2
2018-04-10T11:33:51.804Z,20.2
2018-04-10T11:34:53.179Z,20.2
2018-04-10T11:35:54.568Z,20.3
2018-04-10T11:36:55.954Z,20.4
2018-04-10T11:37:57.330Z,20.4
2018-04-10T11:38:58.712Z,20.5
2018-04-10T11:40:00.097Z,20.6
2018-04-10T11:41:01.481Z,20.6
2018-04-10T11:42:02.853Z,20.7
2018-04-10T11:43:04.233Z,20.8
2018-04-10T11:44:05.612Z,20.7
2018-04-10T11:45:07.002Z,20.6
2018-04-10T11:46:08.380Z,20.5
2018-04-10T11:47:09.775Z,20.7
2018-04-10T11:48:11.148Z,20.6
2018-04-10T11:49:12.538Z,20.5
2018-04-10T11:50:13.911Z,20.5
2018-04-10T11:51:15.309Z,20.5
2018-04-10T11:52:16.688Z,20.5
2018-04-10T11:53:18.062Z,20.4
2018-04-10T11:54:19.464Z,20.4
2018-04-10T11:55:20.831Z,20.3
2018-04-10T11:56:22.215Z,20.3
2018-04-10T11:57:23.592Z,20.4
2018-04-10T11:58:24.969Z,20.3
2018-04-10T11:59:26.345Z,20.4
2018-04-10T12:00:27.770Z,20.4
2018-04-10T12:01:29.155Z,20.5
2018-04-10T12:02:30.542Z,20.5
2018-04-10T12:03:31.917Z,20.6
2018-04-10T12:04:33.294Z,20.6
2018-04-10T12:05:34.670Z,20.7
2018-04-10T12:06:36.058Z,20.7
2018-04-10T12:07:37.436Z,20.7
2018-04-10T12:08:38.822Z,20.9
2018-04-10T12:09:40.193Z,20.9
2018-04-10T12:10:41.590Z,20.9
2018-04-10T12:11:42.976Z,21.0
2018-04-10T12:12:44.361Z,21.1
2018-04-10T12:13:45.739Z,21.1
2018-04-10T12:14:47.127Z,21.1
2018-04-10T12:15:48.501Z,21.2
2018-04-10T12:16:49.880Z,21.2
2018-04-10T12:17:51.260Z,21.3
2018-04-10T12:18:52.634Z,21.3
2018-04-10T12:19:54.012Z,21.4
2018-04-10T12:20:55.406Z,21.5
2018-04-10T12:21:56.793Z,21.6
2018-04-10T12:22:58.172Z,21.6
2018-04-10T12:23:59.553Z,21.5
2018-04-10T12:25:00.941Z,21.4
2018-04-10T12:26:02.335Z,21.5
2018-04-10T12:27:03.709Z,21.5
2018-04-10T12:28:05.090Z,21.6
2018-04-10T12:29:06.473Z,21.7
2018-04-10T12:30:07.851Z,21.8
2018-04-10T12:31:09.226Z,21.8
2018-04-10T12:32:10.611Z,21.8
2018-04-10T12:33:11.987Z,21.8
2018-04-10T12:34:13.381Z,21.8
2018-04-10T12:35:14.769Z,21.8
2018-04-10T12:36:16.148Z,21.8
2018-04-10T12:37:17.529Z,21.8
2018-04-10T12:38:18.916Z,22.0
2018-04-10T12:39:20.314Z,22.0
2018-04-10T12:40:21.696Z,22.0
2018-04-10T12:41:23.081Z,22.0
2018-04-10T12:42:24.461Z,21.9
2018-04-10T12:43:25.836Z,21.9
2018-04-10T12:44:27.217Z,21.9
2018-04-10T12:45:28.600Z,22.0
2018-04-10T12:46:29.982Z,22.0
2018-04-10T12:47:31.370Z,22.0
2018-04-10T12:48:32.761Z,22.1
2018-04-10T12:49:34.130Z,22.0
2018-04-10T12:50:35.505Z,22.0
2018-04-10T12:51:36.894Z,22.1
2018-04-10T12:52:38.302Z,22.0
2018-04-10T12:53:39.660Z,22.0
2018-04-10T12:54:41.048Z,22.0
2018-04-10T12:55:42.426Z,22.0
2018-04-10T12:56:43.798Z,22.2
2018-04-10T12:57:45.184Z,22.3
2018-04-10T12:58:46.568Z,22.4
2018-04-10T12:59:47.945Z,22.5
2018-04-10T13:00:49.329Z,22.5
2018-04-10T13:01:50.713Z,22.6
2018-04-10T13:02:52.099Z,22.5
2018-04-10T13:03:53.495Z,22.5
2018-04-10T13:04:54.876Z,22.5
2018-04-10T13:05:56.261Z,22.6
2018-04-10T13:06:57.646Z,22.7
2018-04-10T13:07:59.044Z,22.7
2018-04-10T13:09:00.428Z,22.7
2018-04-10T13:10:01.803Z,22.8
2018-04-10T13:11:03.183Z,22.8
2018-04-10T13:12:04.572Z,22.8
2018-04-10T13:13:05.948Z,22.6
2018-04-10T13:14:07.326Z,22.6
2018-04-10T13:15:08.711Z,22.6
2018-04-10T13:16:10.092Z,22.5
2018-04-10T13:17:11.473Z,22.5
2018-04-10T13:18:12.899Z,22.6
2018-04-10T13:19:14.286Z,22.7
2018-04-10T13:20:15.669Z,22.8
2018-04-10T13:21:17.048Z,22.9
2018-04-10T13:22:18.422Z,22.9
2018-04-10T13:23:19.809Z,22.8
2018-04-10T13:24:21.186Z,22.9
2018-04-10T13:25:22.576Z,22.9
2018-04-10T13:26:23.949Z,22.8
2018-04-10T13:27:25.328Z,22.7
2018-04-10T13:28:26.711Z,22.6
2018-04-10T13:29:28.101Z,22.5
2018-04-10T13:30:29.475Z,22.6
2018-04-10T13:31:30.860Z,22.5
2018-04-10T13:32:32.256Z,22.6
2018-04-10T13:33:33.621Z,22.6
2018-04-10T13:34:35.003Z,22.6
2018-04-10T13:35:36.384Z,22.7
2018-04-10T13:36:37.771Z,22.7